sensor_id;sensor_type;location;lat;lon;timestamp;pressure;altitude;pressure_sealevel;temperature;humidity
30073;BME280;16897;52.422;13.678;2023-04-02T00:03:07;100799.53;;;6.62;58.66
30073;BME280;16897;52.422;13.678;2023-04-02T00:07:24;100797.72;;;6.64;58.65
30073;BME280;16897;52.422;13.678;2023-04-02T00:11:34;100776.31;;;6.35;58.71
30073;BME280;16897;52.422;13.678;2023-04-02T00:15:38;100817.03;;;6.57;58.82
30073;BME280;16897;52.422;13.678;2023-04-02T00:19:53;100833.19;;;6.63;58.85
30073;BME280;16897;52.422;13.678;2023-04-02T00:24:05;100836.94;;;6.56;58.67
30073;BME280;16897;52.422;13.678;2023-04-02T00:28:21;100843.69;;;6.60;58.83
30073;BME280;16897;52.422;13.678;2023-04-02T00:32:28;100853.22;;;6.60;58.57
30073;BME280;16897;52.422;13.678;2023-04-02T00:36:32;100837.81;;;6.55;58.53
30073;BME280;16897;52.422;13.678;2023-04-02T00:40:37;100857.59;;;6.59;58.67
30073;BME280;16897;52.422;13.678;2023-04-02T00:44:40;100869.66;;;6.60;58.61
30073;BME280;16897;52.422;13.678;2023-04-02T00:48:57;100875.75;;;6.59;58.64
30073;BME280;16897;52.422;13.678;2023-04-02T00:53:10;100881.78;;;6.60;58.73
30073;BME280;16897;52.422;13.678;2023-04-02T00:57:15;100889.44;;;6.63;58.63
30073;BME280;16897;52.422;13.678;2023-04-02T01:01:21;100895.47;;;6.63;58.60
30073;BME280;16897;52.422;13.678;2023-04-02T01:05:25;100878.75;;;6.47;58.54
30073;BME280;16897;52.422;13.678;2023-04-02T01:18:25;100920.63;;;6.61;58.53
30073;BME280;16897;52.422;13.678;2023-04-02T01:30:56;100920.97;;;6.52;58.68
30073;BME280;16897;52.422;13.678;2023-04-02T01:34:59;100937.22;;;6.57;58.46
30073;BME280;16897;52.422;13.678;2023-04-02T01:39:07;100948.44;;;6.58;58.67
30073;BME280;16897;52.422;13.678;2023-04-02T01:47:29;100908.31;;;6.18;58.78
30073;BME280;16897;52.422;13.678;2023-04-02T01:51:33;100964.44;;;6.46;58.56
30073;BME280;16897;52.422;13.678;2023-04-02T01:55:49;100978.47;;;6.40;58.46
30073;BME280;16897;52.422;13.678;2023-04-02T01:59:53;100978.81;;;6.29;58.50
30073;BME280;16897;52.422;13.678;2023-04-02T02:03:55;100985.84;;;6.26;58.78
30073;BME280;16897;52.422;13.678;2023-04-02T02:07:57;100994.47;;;6.26;58.57
30073;BME280;16897;52.422;13.678;2023-04-02T02:12:00;100997.88;;;6.28;58.75
30073;BME280;16897;52.422;13.678;2023-04-02T02:16:03;100995.34;;;6.27;58.63
30073;BME280;16897;52.422;13.678;2023-04-02T02:20:07;100964.13;;;6.03;58.80
30073;BME280;16897;52.422;13.678;2023-04-02T02:24:25;100998.88;;;6.24;58.61
30073;BME280;16897;52.422;13.678;2023-04-02T02:28:30;101032.13;;;6.38;58.53
30073;BME280;16897;52.422;13.678;2023-04-02T02:32:34;101013.63;;;6.22;58.75
30073;BME280;16897;52.422;13.678;2023-04-02T02:40:47;101042.84;;;6.27;58.50
30073;BME280;16897;52.422;13.678;2023-04-02T02:44:51;101047.22;;;6.25;58.70
30073;BME280;16897;52.422;13.678;2023-04-02T02:48:54;101045.69;;;6.19;58.45
30073;BME280;16897;52.422;13.678;2023-04-02T02:52:59;101066.13;;;6.29;58.47
30073;BME280;16897;52.422;13.678;2023-04-02T02:57:09;101058.59;;;6.21;58.66
30073;BME280;16897;52.422;13.678;2023-04-02T03:01:13;101074.22;;;6.19;58.55
30073;BME280;16897;52.422;13.678;2023-04-02T03:05:22;101088.03;;;6.20;58.67
30073;BME280;16897;52.422;13.678;2023-04-02T03:13:44;101121.03;;;6.15;58.61
30073;BME280;16897;52.422;13.678;2023-04-02T03:18:10;101128.91;;;6.12;58.57
30073;BME280;16897;52.422;13.678;2023-04-02T03:22:17;101137.72;;;6.06;58.52
30073;BME280;16897;52.422;13.678;2023-04-02T03:30:49;101149.94;;;6.01;58.50
30073;BME280;16897;52.422;13.678;2023-04-02T03:35:00;101136.19;;;5.99;58.56
30073;BME280;16897;52.422;13.678;2023-04-02T03:39:21;101104.00;;;5.76;58.63
30073;BME280;16897;52.422;13.678;2023-04-02T03:43:30;101141.47;;;5.96;58.60
30073;BME280;16897;52.422;13.678;2023-04-02T03:47:37;101145.78;;;5.97;58.46
30073;BME280;16897;52.422;13.678;2023-04-02T03:52:08;101177.31;;;6.11;58.46
30073;BME280;16897;52.422;13.678;2023-04-02T03:56:21;101164.53;;;6.05;58.54
30073;BME280;16897;52.422;13.678;2023-04-02T04:00:39;101199.59;;;6.18;58.58
30073;BME280;16897;52.422;13.678;2023-04-02T04:04:44;101155.31;;;5.95;58.60
30073;BME280;16897;52.422;13.678;2023-04-02T04:08:49;101203.75;;;6.24;58.44
30073;BME280;16897;52.422;13.678;2023-04-02T04:12:56;101196.94;;;6.20;58.55
30073;BME280;16897;52.422;13.678;2023-04-02T04:21:19;101225.25;;;6.26;58.37
30073;BME280;16897;52.422;13.678;2023-04-02T04:25:38;101209.09;;;6.18;58.35
30073;BME280;16897;52.422;13.678;2023-04-02T04:30:12;101253.66;;;6.31;58.19
30073;BME280;16897;52.422;13.678;2023-04-02T04:38:35;101245.63;;;6.10;58.37
30073;BME280;16897;52.422;13.678;2023-04-02T04:42:42;101261.03;;;6.15;58.24
30073;BME280;16897;52.422;13.678;2023-04-02T04:46:58;101271.28;;;6.19;58.37
30073;BME280;16897;52.422;13.678;2023-04-02T04:51:16;101261.97;;;6.12;58.50
30073;BME280;16897;52.422;13.678;2023-04-02T04:55:37;101270.75;;;6.08;58.52
30073;BME280;16897;52.422;13.678;2023-04-02T04:59:43;101274.16;;;6.10;58.46
30073;BME280;16897;52.422;13.678;2023-04-02T05:03:50;101305.00;;;6.19;58.59
30073;BME280;16897;52.422;13.678;2023-04-02T05:07:58;101260.75;;;5.93;58.41
30073;BME280;16897;52.422;13.678;2023-04-02T05:12:41;101316.97;;;6.24;58.43
30073;BME280;16897;52.422;13.678;2023-04-02T05:17:09;101324.72;;;6.25;58.49
30073;BME280;16897;52.422;13.678;2023-04-02T05:21:36;101334.16;;;6.28;58.33
30073;BME280;16897;52.422;13.678;2023-04-02T05:26:04;101340.28;;;6.25;58.45
30073;BME280;16897;52.422;13.678;2023-04-02T05:34:22;101329.44;;;6.11;58.36
30073;BME280;16897;52.422;13.678;2023-04-02T05:38:28;101355.09;;;6.22;58.24
30073;BME280;16897;52.422;13.678;2023-04-02T05:42:34;101356.03;;;6.17;58.32
30073;BME280;16897;52.422;13.678;2023-04-02T05:46:58;101369.75;;;6.23;58.48
30073;BME280;16897;52.422;13.678;2023-04-02T05:51:07;101379.28;;;6.22;58.34
30073;BME280;16897;52.422;13.678;2023-04-02T05:59:30;101387.91;;;6.23;58.36
30073;BME280;16897;52.422;13.678;2023-04-02T06:03:50;101383.56;;;6.23;58.44
30073;BME280;16897;52.422;13.678;2023-04-02T06:07:57;101350.56;;;5.97;58.20
30073;BME280;16897;52.422;13.678;2023-04-02T06:12:29;101408.53;;;6.27;58.46
30073;BME280;16897;52.422;13.678;2023-04-02T06:16:35;101400.97;;;6.18;58.47
30073;BME280;16897;52.422;13.678;2023-04-02T06:20:38;101390.69;;;6.15;58.25
30073;BME280;16897;52.422;13.678;2023-04-02T06:24:40;101431.69;;;6.35;58.43
30073;BME280;16897;52.422;13.678;2023-04-02T06:29:03;101432.69;;;6.29;58.44
30073;BME280;16897;52.422;13.678;2023-04-02T06:33:10;101425.88;;;6.24;58.32
30073;BME280;16897;52.422;13.678;2023-04-02T06:37:35;101431.88;;;6.27;58.50
30073;BME280;16897;52.422;13.678;2023-04-02T06:41:46;101439.69;;;6.26;58.37
30073;BME280;16897;52.422;13.678;2023-04-02T06:46:14;101470.50;;;6.38;58.20
30073;BME280;16897;52.422;13.678;2023-04-02T06:50:54;101480.09;;;6.34;58.22
30073;BME280;16897;52.422;13.678;2023-04-02T06:54:56;101483.56;;;6.35;58.42
30073;BME280;16897;52.422;13.678;2023-04-02T06:58:58;101499.13;;;6.35;58.27
30073;BME280;16897;52.422;13.678;2023-04-02T07:03:00;101500.84;;;6.34;58.36
30073;BME280;16897;52.422;13.678;2023-04-02T07:07:04;101502.63;;;6.32;58.07
30073;BME280;16897;52.422;13.678;2023-04-02T07:11:16;101519.78;;;6.38;58.01
30073;BME280;16897;52.422;13.678;2023-04-02T07:15:19;101508.69;;;6.33;58.02
30073;BME280;16897;52.422;13.678;2023-04-02T07:19:21;101534.28;;;6.45;58.10
30073;BME280;16897;52.422;13.678;2023-04-02T07:23:26;101526.47;;;6.47;58.09
30073;BME280;16897;52.422;13.678;2023-04-02T07:27:28;101536.66;;;6.54;58.27
30073;BME280;16897;52.422;13.678;2023-04-02T07:31:29;101529.84;;;6.50;58.03
30073;BME280;16897;52.422;13.678;2023-04-02T07:35:31;101530.66;;;6.52;58.16
30073;BME280;16897;52.422;13.678;2023-04-02T07:39:33;101545.94;;;6.64;58.11
30073;BME280;16897;52.422;13.678;2023-04-02T07:43:34;101533.72;;;6.68;58.12
30073;BME280;16897;52.422;13.678;2023-04-02T07:47:37;101546.41;;;6.79;58.31
30073;BME280;16897;52.422;13.678;2023-04-02T07:51:39;101553.28;;;6.81;58.05
30073;BME280;16897;52.422;13.678;2023-04-02T07:55:40;101559.16;;;6.88;57.95
30073;BME280;16897;52.422;13.678;2023-04-02T07:59:42;101553.22;;;6.83;57.97
30073;BME280;16897;52.422;13.678;2023-04-02T08:03:43;101577.94;;;6.98;58.07
30073;BME280;16897;52.422;13.678;2023-04-02T08:07:55;101570.03;;;7.02;58.02
30073;BME280;16897;52.422;13.678;2023-04-02T08:11:56;101574.72;;;7.21;58.19
30073;BME280;16897;52.422;13.678;2023-04-02T08:15:59;101575.31;;;7.30;58.19
30073;BME280;16897;52.422;13.678;2023-04-02T08:20:00;101596.47;;;7.48;57.95
30073;BME280;16897;52.422;13.678;2023-04-02T08:24:02;101585.09;;;7.52;57.71
30073;BME280;16897;52.422;13.678;2023-04-02T08:28:04;101610.03;;;7.59;57.66
30073;BME280;16897;52.422;13.678;2023-04-02T08:32:05;101559.75;;;7.29;57.44
30073;BME280;16897;52.422;13.678;2023-04-02T08:36:17;101597.44;;;7.45;57.52
30073;BME280;16897;52.422;13.678;2023-04-02T08:40:24;101596.63;;;7.43;57.80
30073;BME280;16897;52.422;13.678;2023-04-02T08:48:58;101626.41;;;7.61;57.66
30073;BME280;16897;52.422;13.678;2023-04-02T08:53:04;101642.63;;;7.71;57.67
30073;BME280;16897;52.422;13.678;2023-04-02T08:57:29;101652.91;;;7.75;57.62
30073;BME280;16897;52.422;13.678;2023-04-02T09:05:39;101640.97;;;7.67;57.25
30073;BME280;16897;52.422;13.678;2023-04-02T09:09:42;101625.63;;;7.59;57.27
30073;BME280;16897;52.422;13.678;2023-04-02T09:13:54;101657.06;;;7.81;57.58
30073;BME280;16897;52.422;13.678;2023-04-02T09:18:13;101671.56;;;7.88;57.41
30073;BME280;16897;52.422;13.678;2023-04-02T09:22:24;101679.97;;;7.98;57.34
30073;BME280;16897;52.422;13.678;2023-04-02T09:26:28;101672.47;;;7.87;57.53
30073;BME280;16897;52.422;13.678;2023-04-02T09:34:34;101682.78;;;7.90;57.53
30073;BME280;16897;52.422;13.678;2023-04-02T09:38:36;101698.28;;;7.95;57.41
30073;BME280;16897;52.422;13.678;2023-04-02T09:42:37;101720.75;;;7.97;57.53
30073;BME280;16897;52.422;13.678;2023-04-02T09:46:49;101725.84;;;8.01;57.51
30073;BME280;16897;52.422;13.678;2023-04-02T09:51:16;101726.06;;;7.93;57.39
30073;BME280;16897;52.422;13.678;2023-04-02T09:55:28;101698.66;;;7.81;57.31
30073;BME280;16897;52.422;13.678;2023-04-02T09:59:31;101743.84;;;8.08;57.58
30073;BME280;16897;52.422;13.678;2023-04-02T10:03:32;101733.56;;;8.04;57.48
30073;BME280;16897;52.422;13.678;2023-04-02T10:07:45;101746.16;;;8.19;57.37
30073;BME280;16897;52.422;13.678;2023-04-02T10:11:48;101704.38;;;7.94;57.40
30073;BME280;16897;52.422;13.678;2023-04-02T10:20:02;101757.19;;;8.27;57.29
30073;BME280;16897;52.422;13.678;2023-04-02T10:24:14;101782.84;;;8.41;57.39
30073;BME280;16897;52.422;13.678;2023-04-02T10:41:41;101768.66;;;8.51;57.40
30073;BME280;16897;52.422;13.678;2023-04-02T10:45:49;101790.81;;;8.64;57.17
30073;BME280;16897;52.422;13.678;2023-04-02T10:50:34;101772.00;;;8.55;57.11
30073;BME280;16897;52.422;13.678;2023-04-02T10:54:47;101771.09;;;8.56;57.15
30073;BME280;16897;52.422;13.678;2023-04-02T10:59:02;101798.47;;;8.69;57.08
30073;BME280;16897;52.422;13.678;2023-04-02T11:03:12;101807.06;;;8.73;57.09
30073;BME280;16897;52.422;13.678;2023-04-02T11:07:20;101795.03;;;8.69;57.08
30073;BME280;16897;52.422;13.678;2023-04-02T11:11:34;101805.50;;;8.67;57.03
30073;BME280;16897;52.422;13.678;2023-04-02T11:15:38;101822.50;;;8.79;56.97
30073;BME280;16897;52.422;13.678;2023-04-02T11:19:40;101840.78;;;8.77;56.96
30073;BME280;16897;52.422;13.678;2023-04-02T11:28:30;101846.03;;;8.76;56.91
30073;BME280;16897;52.422;13.678;2023-04-02T11:32:40;101831.38;;;8.72;57.02
30073;BME280;16897;52.422;13.678;2023-04-02T11:40:56;101869.06;;;8.90;56.93
30073;BME280;16897;52.422;13.678;2023-04-02T11:49:37;101874.25;;;8.91;56.91
30073;BME280;16897;52.422;13.678;2023-04-02T11:53:41;101888.84;;;8.97;56.94
30073;BME280;16897;52.422;13.678;2023-04-02T12:02:09;101890.41;;;9.02;57.02
30073;BME280;16897;52.422;13.678;2023-04-02T12:10:54;101880.88;;;9.01;56.87
30073;BME280;16897;52.422;13.678;2023-04-02T12:14:57;101883.38;;;9.04;57.03
30073;BME280;16897;52.422;13.678;2023-04-02T12:18:59;101866.34;;;8.94;56.89
30073;BME280;16897;52.422;13.678;2023-04-02T12:23:01;101866.19;;;8.99;56.83
30073;BME280;16897;52.422;13.678;2023-04-02T12:27:16;101904.38;;;9.28;56.99
30073;BME280;16897;52.422;13.678;2023-04-02T12:31:18;101909.50;;;9.31;56.92
30073;BME280;16897;52.422;13.678;2023-04-02T12:35:28;101899.88;;;9.33;56.81
30073;BME280;16897;52.422;13.678;2023-04-02T12:39:31;101907.56;;;9.38;56.71
30073;BME280;16897;52.422;13.678;2023-04-02T12:43:35;101904.13;;;9.37;56.75
30073;BME280;16897;52.422;13.678;2023-04-02T12:47:38;101894.56;;;9.36;56.67
30073;BME280;16897;52.422;13.678;2023-04-02T12:51:45;101898.69;;;9.43;56.65
30073;BME280;16897;52.422;13.678;2023-04-02T12:55:49;101896.09;;;9.43;56.70
30073;BME280;16897;52.422;13.678;2023-04-02T12:59:53;101911.34;;;9.56;56.60
30073;BME280;16897;52.422;13.678;2023-04-02T13:04:08;101891.53;;;9.50;56.60
30073;BME280;16897;52.422;13.678;2023-04-02T13:08:30;101906.69;;;9.65;56.54
30073;BME280;16897;52.422;13.678;2023-04-02T13:12:36;101901.22;;;9.73;56.66
30073;BME280;16897;52.422;13.678;2023-04-02T13:16:38;101913.81;;;9.87;56.53
30073;BME280;16897;52.422;13.678;2023-04-02T13:20:42;101906.78;;;9.89;56.58
30073;BME280;16897;52.422;13.678;2023-04-02T13:24:43;101926.94;;;10.10;56.62
30073;BME280;16897;52.422;13.678;2023-04-02T13:29:01;101918.91;;;10.16;56.38
30073;BME280;16897;52.422;13.678;2023-04-02T13:33:03;101922.75;;;10.31;56.63
30073;BME280;16897;52.422;13.678;2023-04-02T13:37:05;101914.88;;;10.33;56.65
30073;BME280;16897;52.422;13.678;2023-04-02T13:41:28;101933.38;;;10.52;56.31
30073;BME280;16897;52.422;13.678;2023-04-02T13:45:33;101931.72;;;10.49;56.35
30073;BME280;16897;52.422;13.678;2023-04-02T13:49:36;101906.13;;;10.34;56.19
30073;BME280;16897;52.422;13.678;2023-04-02T13:53:37;101938.59;;;10.52;56.20
30073;BME280;16897;52.422;13.678;2023-04-02T13:57:39;101928.16;;;10.52;56.24
30073;BME280;16897;52.422;13.678;2023-04-02T14:01:41;101916.69;;;10.56;56.29
30073;BME280;16897;52.422;13.678;2023-04-02T14:06:03;101948.31;;;10.72;56.11
30073;BME280;16897;52.422;13.678;2023-04-02T14:32:01;101973.59;;;10.71;55.98
30073;BME280;16897;52.422;13.678;2023-04-02T14:36:18;101964.00;;;10.72;55.96
30073;BME280;16897;52.422;13.678;2023-04-02T14:44:45;101931.94;;;10.43;55.75
30073;BME280;16897;52.422;13.678;2023-04-02T14:49:00;101960.22;;;10.55;55.76
30073;BME280;16897;52.422;13.678;2023-04-02T14:53:13;101974.63;;;10.67;55.75
30073;BME280;16897;52.422;13.678;2023-04-02T14:57:26;101985.28;;;10.61;55.56
30073;BME280;16897;52.422;13.678;2023-04-02T15:01:39;101974.91;;;10.59;55.60
30073;BME280;16897;52.422;13.678;2023-04-02T15:09:48;101977.28;;;10.66;55.56
30073;BME280;16897;52.422;13.678;2023-04-02T15:17:58;101975.91;;;10.55;55.41
30073;BME280;16897;52.422;13.678;2023-04-02T15:26:45;102013.81;;;10.67;55.27
30073;BME280;16897;52.422;13.678;2023-04-02T15:30:55;102001.31;;;10.50;55.36
30073;BME280;16897;52.422;13.678;2023-04-02T15:39:26;102035.81;;;10.60;55.47
30073;BME280;16897;52.422;13.678;2023-04-02T15:43:40;102036.16;;;10.51;55.10
30073;BME280;16897;52.422;13.678;2023-04-02T15:47:53;102038.88;;;10.48;55.05
30073;BME280;16897;52.422;13.678;2023-04-02T15:52:28;102032.38;;;10.33;54.96
30073;BME280;16897;52.422;13.678;2023-04-02T16:18:24;102049.78;;;10.04;54.89
30073;BME280;16897;52.422;13.678;2023-04-02T16:22:29;102087.50;;;10.24;55.02
30073;BME280;16897;52.422;13.678;2023-04-02T16:27:19;102092.72;;;10.24;55.07
30073;BME280;16897;52.422;13.678;2023-04-02T16:31:19;102114.38;;;10.26;55.07
30073;BME280;16897;52.422;13.678;2023-04-02T16:49:17;102138.59;;;10.03;54.95
30073;BME280;16897;52.422;13.678;2023-04-02T17:06:41;102162.16;;;9.70;54.55
30073;BME280;16897;52.422;13.678;2023-04-02T17:11:06;102165.81;;;9.64;54.72
30073;BME280;16897;52.422;13.678;2023-04-02T17:15:35;102166.84;;;9.59;54.54
30073;BME280;16897;52.422;13.678;2023-04-02T17:19:39;102154.31;;;9.39;54.73
30073;BME280;16897;52.422;13.678;2023-04-02T17:24:22;102194.13;;;9.45;54.73
30073;BME280;16897;52.422;13.678;2023-04-02T17:28:25;102187.28;;;9.41;54.78
30073;BME280;16897;52.422;13.678;2023-04-02T17:32:31;102167.19;;;9.12;54.46
30073;BME280;16897;52.422;13.678;2023-04-02T17:41:37;102218.94;;;9.27;54.54
30073;BME280;16897;52.422;13.678;2023-04-02T17:45:44;102192.66;;;9.02;54.41
30073;BME280;16897;52.422;13.678;2023-04-02T18:03:20;102255.13;;;9.04;54.40
30073;BME280;16897;52.422;13.678;2023-04-02T18:16:39;102262.44;;;8.88;54.30
30073;BME280;16897;52.422;13.678;2023-04-02T18:20:38;102259.38;;;8.71;54.46
30073;BME280;16897;52.422;13.678;2023-04-02T18:33:42;102296.91;;;8.62;54.39
30073;BME280;16897;52.422;13.678;2023-04-02T18:47:07;102308.59;;;8.43;54.45
30073;BME280;16897;52.422;13.678;2023-04-02T18:51:19;102253.91;;;7.99;54.41
30073;BME280;16897;52.422;13.678;2023-04-02T18:55:31;102330.47;;;8.31;54.48
30073;BME280;16897;52.422;13.678;2023-04-02T19:00:22;102333.16;;;8.28;54.51
30073;BME280;16897;52.422;13.678;2023-04-02T19:04:28;102332.53;;;8.15;54.34
30073;BME280;16897;52.422;13.678;2023-04-02T19:08:57;102337.88;;;8.07;54.30
30073;BME280;16897;52.422;13.678;2023-04-02T19:13:00;102361.28;;;8.07;54.49
30073;BME280;16897;52.422;13.678;2023-04-02T19:26:17;102392.91;;;7.84;54.42
30073;BME280;16897;52.422;13.678;2023-04-02T19:30:51;102394.78;;;7.76;54.54
30073;BME280;16897;52.422;13.678;2023-04-02T19:35:14;102390.63;;;7.66;54.46
30073;BME280;16897;52.422;13.678;2023-04-02T19:43:39;102392.69;;;7.45;54.37
30073;BME280;16897;52.422;13.678;2023-04-02T19:47:41;102415.19;;;7.46;54.37
30073;BME280;16897;52.422;13.678;2023-04-02T19:51:42;102410.94;;;7.39;54.64
30073;BME280;16897;52.422;13.678;2023-04-02T19:55:44;102417.06;;;7.37;54.49
30073;BME280;16897;52.422;13.678;2023-04-02T19:59:46;102418.91;;;7.30;54.25
30073;BME280;16897;52.422;13.678;2023-04-02T20:03:48;102425.09;;;7.21;54.49
30073;BME280;16897;52.422;13.678;2023-04-02T20:07:49;102417.44;;;7.11;54.38
30073;BME280;16897;52.422;13.678;2023-04-02T20:11:50;102448.56;;;7.14;54.33
30073;BME280;16897;52.422;13.678;2023-04-02T20:15:52;102439.13;;;7.08;54.22
30073;BME280;16897;52.422;13.678;2023-04-02T20:19:54;102445.25;;;7.01;54.31
30073;BME280;16897;52.422;13.678;2023-04-02T20:23:56;102419.50;;;6.82;54.43
30073;BME280;16897;52.422;13.678;2023-04-02T20:27:57;102455.72;;;6.93;54.35
30073;BME280;16897;52.422;13.678;2023-04-02T20:32:00;102414.59;;;6.58;54.35
30073;BME280;16897;52.422;13.678;2023-04-02T20:36:05;102416.47;;;6.48;54.41
30073;BME280;16897;52.422;13.678;2023-04-02T20:40:07;102460.31;;;6.70;54.37
30073;BME280;16897;52.422;13.678;2023-04-02T20:44:10;102453.50;;;6.61;54.52
30073;BME280;16897;52.422;13.678;2023-04-02T20:48:12;102484.63;;;6.65;54.49
30073;BME280;16897;52.422;13.678;2023-04-02T20:52:14;102476.09;;;6.54;54.49
30073;BME280;16897;52.422;13.678;2023-04-02T20:56:16;102501.13;;;6.58;54.29
30073;BME280;16897;52.422;13.678;2023-04-02T21:00:18;102473.72;;;6.30;54.21
30073;BME280;16897;52.422;13.678;2023-04-02T21:04:20;102487.53;;;6.35;54.33
30073;BME280;16897;52.422;13.678;2023-04-02T21:08:22;102487.56;;;6.29;54.27
30073;BME280;16897;52.422;13.678;2023-04-02T21:12:24;102490.19;;;6.27;54.29
30073;BME280;16897;52.422;13.678;2023-04-02T21:16:27;102479.94;;;6.13;54.33
30073;BME280;16897;52.422;13.678;2023-04-02T21:20:29;102530.81;;;6.30;54.39
30073;BME280;16897;52.422;13.678;2023-04-02T21:24:30;102523.06;;;6.20;54.44
30073;BME280;16897;52.422;13.678;2023-04-02T21:28:33;102524.81;;;6.20;54.29
30073;BME280;16897;52.422;13.678;2023-04-02T21:32:35;102527.47;;;6.12;54.31
30073;BME280;16897;52.422;13.678;2023-04-02T21:36:39;102539.56;;;6.12;54.51
30073;BME280;16897;52.422;13.678;2023-04-02T21:40:41;102530.19;;;5.95;54.30
30073;BME280;16897;52.422;13.678;2023-04-02T21:44:43;102546.53;;;6.07;54.47
30073;BME280;16897;52.422;13.678;2023-04-02T21:48:45;102549.16;;;6.02;54.25
30073;BME280;16897;52.422;13.678;2023-04-02T21:52:46;102565.56;;;6.04;54.25
30073;BME280;16897;52.422;13.678;2023-04-02T21:56:48;102550.06;;;5.92;54.25
30073;BME280;16897;52.422;13.678;2023-04-02T22:00:49;102532.84;;;5.82;54.36
30073;BME280;16897;52.422;13.678;2023-04-02T22:04:51;102567.34;;;5.93;54.16
30073;BME280;16897;52.422;13.678;2023-04-02T22:08:57;102563.09;;;5.80;54.40
30073;BME280;16897;52.422;13.678;2023-04-02T22:12:59;102561.41;;;5.74;54.39
30073;BME280;16897;52.422;13.678;2023-04-02T22:17:01;102569.19;;;5.75;54.32
30073;BME280;16897;52.422;13.678;2023-04-02T22:21:04;102567.47;;;5.68;54.49
30073;BME280;16897;52.422;13.678;2023-04-02T22:25:06;102561.47;;;5.60;54.49
30073;BME280;16897;52.422;13.678;2023-04-02T22:29:08;102572.69;;;5.61;54.43
30073;BME280;16897;52.422;13.678;2023-04-02T22:33:10;102577.88;;;5.56;54.23
30073;BME280;16897;52.422;13.678;2023-04-02T22:37:11;102566.72;;;5.45;54.15
30073;BME280;16897;52.422;13.678;2023-04-02T22:41:18;102562.44;;;5.36;54.49
30073;BME280;16897;52.422;13.678;2023-04-02T22:45:22;102585.72;;;5.39;54.50
30073;BME280;16897;52.422;13.678;2023-04-02T22:49:24;102532.34;;;5.01;54.25
30073;BME280;16897;52.422;13.678;2023-04-02T22:53:26;102575.44;;;5.18;54.32
30073;BME280;16897;52.422;13.678;2023-04-02T22:57:28;102570.31;;;5.05;54.27
30073;BME280;16897;52.422;13.678;2023-04-02T23:01:32;102609.97;;;5.23;54.53
30073;BME280;16897;52.422;13.678;2023-04-02T23:05:33;102598.78;;;5.13;54.41
30073;BME280;16897;52.422;13.678;2023-04-02T23:09:35;102595.31;;;5.02;54.39
30073;BME280;16897;52.422;13.678;2023-04-02T23:13:38;102613.44;;;5.06;54.37
30073;BME280;16897;52.422;13.678;2023-04-02T23:17:39;102614.31;;;5.04;54.53
30073;BME280;16897;52.422;13.678;2023-04-02T23:21:41;102614.31;;;4.96;54.41
30073;BME280;16897;52.422;13.678;2023-04-02T23:25:43;102626.41;;;5.02;54.32
30073;BME280;16897;52.422;13.678;2023-04-02T23:29:44;102629.00;;;4.99;54.49
30073;BME280;16897;52.422;13.678;2023-04-02T23:33:46;102586.75;;;4.63;54.44
30073;BME280;16897;52.422;13.678;2023-04-02T23:37:48;102586.75;;;4.60;54.62
30073;BME280;16897;52.422;13.678;2023-04-02T23:41:49;102645.41;;;4.92;54.50
30073;BME280;16897;52.422;13.678;2023-04-02T23:45:51;102620.41;;;4.74;54.66
30073;BME280;16897;52.422;13.678;2023-04-02T23:49:53;102585.03;;;4.53;54.35
30073;BME280;16897;52.422;13.678;2023-04-02T23:53:54;102597.13;;;4.57;54.35
30073;BME280;16897;52.422;13.678;2023-04-02T23:57:56;102646.25;;;4.80;54.71
